createdAt,value
2018-12-18T00:00:15.888Z,70.14
2018-12-18T00:02:47.260Z,69.64
2018-12-18T00:05:21.740Z,69.82
2018-12-18T00:07:51.010Z,69.85
2018-12-18T00:10:20.241Z,70.17
2018-12-18T00:12:49.436Z,70.48
2018-12-18T00:15:18.656Z,70.87
2018-12-18T00:17:47.866Z,70.51
2018-12-18T00:20:17.168Z,70.76
2018-12-18T00:22:46.286Z,70.81
2018-12-18T00:25:15.427Z,70.52
2018-12-18T00:27:44.642Z,70.86
2018-12-18T00:30:13.836Z,70.72
2018-12-18T00:32:43.073Z,71.17
2018-12-18T00:35:12.305Z,71.43
2018-12-18T00:37:41.476Z,71.25
2018-12-18T00:40:10.784Z,70.68
2018-12-18T00:42:40.041Z,71.35
2018-12-18T00:45:09.296Z,71.09
2018-12-18T00:47:38.550Z,70.72
2018-12-18T00:50:07.764Z,70.66
2018-12-18T00:52:36.915Z,70.81
2018-12-18T00:55:06.493Z,71.04
2018-12-18T00:57:35.623Z,70.41
2018-12-18T01:00:05.992Z,70.45
2018-12-18T01:02:35.164Z,70.75
2018-12-18T01:05:04.498Z,70.35
2018-12-18T01:07:33.769Z,70.12
2018-12-18T01:10:03.077Z,70.24
2018-12-18T01:12:32.385Z,70.31
2018-12-18T01:15:01.464Z,70.15
2018-12-18T01:17:30.560Z,70.12
2018-12-18T01:19:59.776Z,70.27
2018-12-18T01:22:28.972Z,70.44
2018-12-18T01:24:58.149Z,70.14
2018-12-18T01:27:27.296Z,70.42
2018-12-18T01:29:56.523Z,70.36
2018-12-18T01:32:25.648Z,70.41
2018-12-18T01:34:54.735Z,70.25
2018-12-18T01:37:23.853Z,70.63
2018-12-18T01:39:53.067Z,70.86
2018-12-18T01:42:22.284Z,70.67
2018-12-18T01:44:51.462Z,70.78
2018-12-18T01:47:20.695Z,71.10
2018-12-18T01:49:49.947Z,70.56
2018-12-18T01:52:19.084Z,70.53
2018-12-18T01:54:48.360Z,70.77
2018-12-18T01:57:17.524Z,70.98
2018-12-18T01:59:46.665Z,70.89
2018-12-18T02:02:15.863Z,70.80
2018-12-18T02:04:45.151Z,70.38
2018-12-18T02:07:14.352Z,70.43
2018-12-18T02:09:43.562Z,70.60
2018-12-18T02:12:12.773Z,70.41
2018-12-18T02:14:41.887Z,70.66
2018-12-18T02:17:11.041Z,70.47
2018-12-18T02:19:40.232Z,70.17
2018-12-18T02:22:09.511Z,70.83
2018-12-18T02:24:38.610Z,70.71
2018-12-18T02:27:07.790Z,70.07
2018-12-18T02:29:37.033Z,70.24
2018-12-18T02:32:06.208Z,70.70
2018-12-18T02:34:35.420Z,70.49
2018-12-18T02:37:04.749Z,70.71
2018-12-18T02:39:33.996Z,70.36
2018-12-18T02:42:03.116Z,69.98
2018-12-18T02:44:32.344Z,70.16
2018-12-18T02:47:01.427Z,69.90
2018-12-18T02:49:30.495Z,70.03
2018-12-18T02:51:59.766Z,69.67
2018-12-18T02:54:28.916Z,69.75
2018-12-18T02:56:58.127Z,70.23
2018-12-18T02:59:27.345Z,69.64
2018-12-18T03:01:56.484Z,70.22
2018-12-18T03:04:25.678Z,69.90
2018-12-18T03:06:54.930Z,69.96
2018-12-18T03:09:24.185Z,70.04
2018-12-18T03:11:53.305Z,69.91
2018-12-18T03:14:22.497Z,70.15
2018-12-18T03:16:51.716Z,69.50
2018-12-18T03:19:20.912Z,69.33
2018-12-18T03:21:50.131Z,69.22
2018-12-18T03:24:19.304Z,69.28
2018-12-18T03:26:48.516Z,69.53
2018-12-18T03:29:17.802Z,69.34
2018-12-18T03:31:51.368Z,68.89
2018-12-18T03:34:20.664Z,69.27
2018-12-18T03:36:49.910Z,69.05
2018-12-18T03:39:19.064Z,69.31
2018-12-18T03:41:48.280Z,68.98
2018-12-18T03:44:17.506Z,69.14
2018-12-18T03:46:46.708Z,69.34
2018-12-18T03:49:15.941Z,69.21
2018-12-18T03:51:45.065Z,69.62
2018-12-18T03:54:14.169Z,69.54
2018-12-18T03:56:43.441Z,69.44
2018-12-18T03:59:12.647Z,69.87
2018-12-18T04:01:41.849Z,69.60
2018-12-18T04:04:11.056Z,69.58
2018-12-18T04:06:40.306Z,68.95
2018-12-18T04:09:09.613Z,69.19
2018-12-18T04:11:42.785Z,69.69
2018-12-18T04:14:11.835Z,69.22
2018-12-18T04:16:41.158Z,69.20
2018-12-18T04:19:10.426Z,69.05
2018-12-18T04:21:39.649Z,68.96
2018-12-18T04:24:08.800Z,69.02
2018-12-18T04:26:37.918Z,69.00
2018-12-18T04:29:07.141Z,69.32
2018-12-18T04:31:36.344Z,69.39
2018-12-18T04:34:05.520Z,69.50
2018-12-18T04:36:34.674Z,69.37
2018-12-18T04:39:05.789Z,69.51
2018-12-18T04:41:35.057Z,69.98
2018-12-18T04:44:04.189Z,69.82
2018-12-18T04:46:33.341Z,69.48
2018-12-18T04:49:02.531Z,69.60
2018-12-18T04:51:31.834Z,69.73
2018-12-18T04:54:01.016Z,69.59
2018-12-18T04:56:30.145Z,69.27
2018-12-18T04:58:59.292Z,69.44
2018-12-18T05:01:28.520Z,69.26
2018-12-18T05:03:57.717Z,69.17
2018-12-18T05:06:26.965Z,69.43
2018-12-18T05:08:56.281Z,69.22
2018-12-18T05:11:25.644Z,69.64
2018-12-18T05:13:54.838Z,69.47
2018-12-18T05:16:24.035Z,69.87
2018-12-18T05:18:53.184Z,70.16
2018-12-18T05:21:22.354Z,70.56
2018-12-18T05:23:52.471Z,71.03
2018-12-18T05:26:21.536Z,71.02
2018-12-18T05:28:50.790Z,71.41
2018-12-18T05:31:20.037Z,71.46
2018-12-18T05:33:49.652Z,71.65
2018-12-18T05:36:18.900Z,71.45
2018-12-18T05:38:48.121Z,71.66
2018-12-18T05:41:17.334Z,71.63
2018-12-18T05:43:46.497Z,71.95
2018-12-18T05:46:15.636Z,71.65
2018-12-18T05:48:44.773Z,71.62
2018-12-18T05:51:13.981Z,71.76
2018-12-18T05:53:43.225Z,72.27
2018-12-18T05:56:12.529Z,71.79
2018-12-18T05:58:41.718Z,71.83
2018-12-18T06:01:10.851Z,72.08
2018-12-18T06:03:40.029Z,71.26
2018-12-18T06:06:09.146Z,72.21
2018-12-18T06:08:38.326Z,71.93
2018-12-18T06:11:07.536Z,72.12
2018-12-18T06:13:36.766Z,72.44
2018-12-18T06:16:05.981Z,72.23
2018-12-18T06:18:35.202Z,72.46
2018-12-18T06:21:04.409Z,72.37
2018-12-18T06:23:33.580Z,72.18
2018-12-18T06:26:02.795Z,72.06
2018-12-18T06:28:31.879Z,72.08
2018-12-18T06:31:01.090Z,71.55
2018-12-18T06:33:30.229Z,71.71
2018-12-18T06:35:59.421Z,71.34
2018-12-18T06:38:28.576Z,70.75
2018-12-18T06:40:57.824Z,70.85
2018-12-18T06:43:26.976Z,70.60
2018-12-18T06:45:56.164Z,70.01
2018-12-18T06:48:25.745Z,69.80
2018-12-18T06:50:55.085Z,69.85
2018-12-18T06:53:24.301Z,70.03
2018-12-18T06:55:53.512Z,69.73
2018-12-18T06:58:22.724Z,70.06
2018-12-18T07:00:52.010Z,70.03
2018-12-18T07:03:21.277Z,70.27
2018-12-18T07:05:50.440Z,69.55
2018-12-18T07:08:19.649Z,69.26
2018-12-18T07:10:49.082Z,69.65
2018-12-18T07:13:18.268Z,69.87
2018-12-18T07:15:47.491Z,69.54
2018-12-18T07:18:16.698Z,69.98
2018-12-18T07:20:45.839Z,69.71
2018-12-18T07:23:14.936Z,69.23
2018-12-18T07:25:44.118Z,69.23
2018-12-18T07:28:13.297Z,69.71
2018-12-18T07:30:42.545Z,69.20
2018-12-18T07:33:11.746Z,69.32
2018-12-18T07:35:40.916Z,69.39
2018-12-18T07:38:10.037Z,69.28
2018-12-18T07:40:39.146Z,68.88
2018-12-18T07:43:08.334Z,69.15
2018-12-18T07:45:37.552Z,69.20
2018-12-18T07:48:06.704Z,69.05
2018-12-18T07:50:35.904Z,69.99
2018-12-18T07:53:05.068Z,68.73
2018-12-18T07:55:34.226Z,67.75
2018-12-18T07:58:03.553Z,67.90
2018-12-18T08:00:32.719Z,67.80
2018-12-18T08:03:02.155Z,68.26
2018-12-18T08:05:31.477Z,67.61
2018-12-18T08:08:00.622Z,68.18
2018-12-18T08:10:29.852Z,68.16
2018-12-18T08:12:58.998Z,67.67
2018-12-18T08:15:28.192Z,67.68
2018-12-18T08:17:57.457Z,67.29
2018-12-18T08:20:26.633Z,67.29
2018-12-18T08:22:55.855Z,66.71
2018-12-18T08:25:25.098Z,66.36
2018-12-18T08:27:54.293Z,66.37
2018-12-18T08:30:23.457Z,66.37
2018-12-18T08:32:52.595Z,65.73
2018-12-18T08:35:21.824Z,65.37
2018-12-18T08:37:51.006Z,65.58
2018-12-18T08:40:20.271Z,65.58
2018-12-18T08:42:49.638Z,65.89
2018-12-18T08:45:18.832Z,66.03
2018-12-18T08:47:48.007Z,65.52
2018-12-18T08:50:17.237Z,65.81
2018-12-18T08:52:46.432Z,65.92
2018-12-18T08:55:15.621Z,66.12
2018-12-18T08:57:44.866Z,66.25
2018-12-18T09:00:14.105Z,65.59
2018-12-18T09:02:43.289Z,65.52
2018-12-18T09:05:12.475Z,65.99
2018-12-18T09:07:41.700Z,65.20
2018-12-18T09:10:11.310Z,64.47
2018-12-18T09:12:40.606Z,64.43
2018-12-18T09:15:15.143Z,63.56
2018-12-18T09:17:46.577Z,63.30
2018-12-18T09:20:15.921Z,63.19
2018-12-18T09:22:45.135Z,63.59
2018-12-18T09:25:14.344Z,63.83
2018-12-18T09:27:43.583Z,63.12
2018-12-18T09:30:12.776Z,63.09
2018-12-18T09:32:41.960Z,62.49
2018-12-18T09:35:11.108Z,62.23
2018-12-18T09:37:42.421Z,62.24
2018-12-18T09:40:11.599Z,62.40
2018-12-18T09:42:46.052Z,62.67
2018-12-18T09:45:15.237Z,63.02
2018-12-18T09:47:44.418Z,62.49
2018-12-18T09:50:13.625Z,62.57
2018-12-18T09:52:42.825Z,62.85
2018-12-18T09:55:12.044Z,61.89
2018-12-18T09:57:46.677Z,62.21
2018-12-18T10:00:15.903Z,61.25
2018-12-18T10:02:45.028Z,61.73
2018-12-18T10:05:14.350Z,61.00
2018-12-18T10:07:43.537Z,61.00
2018-12-18T10:10:12.784Z,61.40
2018-12-18T10:12:45.934Z,61.36
2018-12-18T10:15:15.305Z,60.85
2018-12-18T10:17:44.488Z,61.24
2018-12-18T10:20:13.675Z,62.04
2018-12-18T10:22:42.781Z,61.98
2018-12-18T10:25:11.981Z,62.06
2018-12-18T10:27:41.253Z,62.12
2018-12-18T10:30:10.943Z,61.32
2018-12-18T10:32:40.369Z,61.26
2018-12-18T10:35:09.629Z,61.42
2018-12-18T10:37:38.741Z,61.31
2018-12-18T10:40:10.522Z,60.47
2018-12-18T10:42:39.750Z,63.35
2018-12-18T10:45:15.446Z,59.88
2018-12-18T10:47:44.607Z,60.29
2018-12-18T10:50:13.728Z,59.90
2018-12-18T10:52:42.903Z,60.18
2018-12-18T10:55:12.151Z,59.82
2018-12-18T10:57:41.259Z,60.46
2018-12-18T11:00:18.752Z,60.87
2018-12-18T11:02:47.921Z,60.95
2018-12-18T11:05:17.176Z,61.21
2018-12-18T11:07:46.374Z,61.51
2018-12-18T11:10:15.547Z,60.97
2018-12-18T11:12:48.752Z,60.33
2018-12-18T11:15:17.847Z,61.25
2018-12-18T11:17:47.077Z,61.12
2018-12-18T11:20:16.260Z,60.71
2018-12-18T11:22:45.477Z,60.70
2018-12-18T11:25:14.684Z,61.03
2018-12-18T11:27:43.935Z,60.81
2018-12-18T11:30:13.042Z,61.42
2018-12-18T11:32:42.195Z,61.52
2018-12-18T11:35:11.391Z,61.59
2018-12-18T11:37:40.523Z,61.25
2018-12-18T11:40:10.645Z,60.96
2018-12-18T11:42:39.818Z,60.93
2018-12-18T11:45:09.084Z,60.65
2018-12-18T11:47:38.289Z,60.47
2018-12-18T11:50:07.726Z,60.77
2018-12-18T11:52:36.780Z,61.28
2018-12-18T11:55:06.077Z,61.67
2018-12-18T11:57:35.171Z,61.51
2018-12-18T12:00:05.798Z,61.85
2018-12-18T12:02:34.977Z,62.12
2018-12-18T12:05:04.417Z,62.15
2018-12-18T12:07:33.630Z,61.92
2018-12-18T12:10:02.816Z,62.03
2018-12-18T12:12:32.046Z,62.03
2018-12-18T12:15:01.629Z,61.37
2018-12-18T12:17:30.896Z,60.87
2018-12-18T12:20:00.139Z,61.12
2018-12-18T12:22:29.252Z,61.33
2018-12-18T12:24:58.418Z,61.61
2018-12-18T12:27:33.677Z,62.50
2018-12-18T12:30:03.234Z,62.84
2018-12-18T12:32:32.415Z,62.72
2018-12-18T12:35:01.662Z,63.25
2018-12-18T12:37:30.828Z,63.07
2018-12-18T12:40:00.180Z,63.30
2018-12-18T12:42:29.235Z,63.26
2018-12-18T12:44:58.442Z,62.87
2018-12-18T12:47:27.650Z,62.44
2018-12-18T12:49:56.808Z,62.46
2018-12-18T12:52:26.046Z,62.33
2018-12-18T12:54:55.161Z,62.32
2018-12-18T12:57:24.399Z,61.85
2018-12-18T12:59:53.552Z,61.57
2018-12-18T13:02:22.709Z,61.70
2018-12-18T13:04:51.855Z,61.72
2018-12-18T13:07:20.972Z,61.48
2018-12-18T13:09:50.173Z,61.67
2018-12-18T13:12:19.368Z,61.84
2018-12-18T13:14:48.555Z,61.76
2018-12-18T13:17:17.764Z,62.19
2018-12-18T13:19:46.985Z,62.46
2018-12-18T13:22:16.241Z,61.85
2018-12-18T13:24:45.504Z,62.22
2018-12-18T13:27:14.575Z,62.39
2018-12-18T13:29:43.777Z,62.11
2018-12-18T13:32:13.065Z,62.36
2018-12-18T13:34:42.277Z,62.60
2018-12-18T13:37:11.542Z,62.25
2018-12-18T13:39:40.745Z,62.68
2018-12-18T13:42:09.952Z,63.05
2018-12-18T13:44:39.108Z,63.99
2018-12-18T13:47:08.316Z,63.52
2018-12-18T13:49:37.418Z,63.60
2018-12-18T13:52:06.544Z,64.02
2018-12-18T13:54:35.818Z,64.18
2018-12-18T13:57:04.982Z,64.27
2018-12-18T13:59:34.128Z,64.50
2018-12-18T14:02:03.274Z,64.58
2018-12-18T14:04:32.497Z,65.28
2018-12-18T14:07:01.728Z,65.69
2018-12-18T14:09:30.907Z,65.77
2018-12-18T14:12:00.129Z,66.29
2018-12-18T14:14:29.336Z,66.00
2018-12-18T14:16:58.555Z,66.08
2018-12-18T14:19:27.708Z,66.29
2018-12-18T14:21:56.892Z,66.01
2018-12-18T14:24:26.211Z,66.47
2018-12-18T14:26:55.457Z,66.75
2018-12-18T14:29:24.545Z,66.57
2018-12-18T14:31:53.652Z,67.07
2018-12-18T14:34:22.901Z,67.11
2018-12-18T14:36:56.222Z,67.72
2018-12-18T14:39:23.308Z,67.72
2018-12-18T14:41:52.545Z,68.13
2018-12-18T14:44:21.749Z,67.90
2018-12-18T14:46:50.945Z,68.21
2018-12-18T14:49:20.193Z,68.57
2018-12-18T14:51:49.397Z,68.83
2018-12-18T14:54:18.821Z,68.66
2018-12-18T14:56:47.944Z,69.24
2018-12-18T14:59:17.453Z,68.87
2018-12-18T15:01:46.733Z,69.45
2018-12-18T15:04:16.011Z,69.55
2018-12-18T15:06:45.213Z,69.51
2018-12-18T15:09:14.410Z,69.87
2018-12-18T15:11:43.544Z,70.09
2018-12-18T15:14:12.729Z,70.39
2018-12-18T15:16:41.907Z,70.66
2018-12-18T15:19:11.155Z,70.38
2018-12-18T15:21:40.558Z,70.38
2018-12-18T15:24:09.684Z,70.40
2018-12-18T15:26:38.913Z,70.55
2018-12-18T15:29:08.061Z,70.36
2018-12-18T15:31:43.924Z,70.70
2018-12-18T15:34:13.146Z,70.69
2018-12-18T15:36:42.382Z,70.49
2018-12-18T15:39:11.561Z,70.70
2018-12-18T15:41:40.792Z,70.87
2018-12-18T15:44:09.962Z,70.28
2018-12-18T15:46:39.149Z,70.94
2018-12-18T15:49:08.347Z,70.87
2018-12-18T15:51:37.545Z,70.65
2018-12-18T15:54:06.774Z,70.67
2018-12-18T15:56:35.974Z,70.74
2018-12-18T15:59:05.221Z,70.84
2018-12-18T16:01:34.319Z,70.96
2018-12-18T16:04:03.532Z,71.30
2018-12-18T16:06:32.654Z,71.17
2018-12-18T16:09:01.749Z,71.29
2018-12-18T16:11:30.949Z,71.70
2018-12-18T16:14:00.073Z,71.07
2018-12-18T16:16:29.279Z,70.98
2018-12-18T16:18:58.556Z,70.83
2018-12-18T16:21:28.103Z,70.85
2018-12-18T16:23:57.305Z,70.79
2018-12-18T16:26:26.456Z,71.06
2018-12-18T16:28:55.627Z,70.76
2018-12-18T16:31:24.941Z,71.15
2018-12-18T16:33:54.202Z,71.00
2018-12-18T16:36:23.410Z,71.23
2018-12-18T16:38:52.559Z,71.32
2018-12-18T16:41:21.893Z,70.85
2018-12-18T16:43:51.047Z,71.30
2018-12-18T16:46:20.267Z,71.29
2018-12-18T16:48:49.381Z,71.37
2018-12-18T16:51:18.535Z,71.56
2018-12-18T16:53:47.685Z,71.59
2018-12-18T16:56:16.844Z,71.28
2018-12-18T16:58:46.077Z,71.35
2018-12-18T17:01:15.333Z,71.31
2018-12-18T17:03:44.578Z,71.56
2018-12-18T17:06:13.890Z,71.88
2018-12-18T17:08:42.975Z,72.08
2018-12-18T17:11:12.185Z,72.21
2018-12-18T17:13:41.359Z,72.28
2018-12-18T17:16:10.529Z,71.91
2018-12-18T17:18:39.944Z,71.90
2018-12-18T17:21:09.192Z,72.29
2018-12-18T17:23:38.582Z,72.20
2018-12-18T17:26:07.843Z,72.08
2018-12-18T17:28:37.048Z,72.50
2018-12-18T17:31:06.232Z,72.96
2018-12-18T17:33:35.835Z,73.12
2018-12-18T17:36:05.306Z,73.06
2018-12-18T17:38:34.416Z,72.23
2018-12-18T17:41:03.729Z,72.51
2018-12-18T17:43:33.289Z,72.39
2018-12-18T17:46:02.499Z,72.45
2018-12-18T17:48:31.620Z,72.50
2018-12-18T17:51:00.811Z,72.63
2018-12-18T17:53:30.034Z,72.69
2018-12-18T17:55:59.189Z,72.78
2018-12-18T17:58:28.366Z,72.82
2018-12-18T18:00:57.588Z,72.52
2018-12-18T18:03:26.899Z,72.60
2018-12-18T18:05:56.125Z,72.49
2018-12-18T18:08:25.362Z,73.13
2018-12-18T18:10:54.571Z,72.95
2018-12-18T18:13:23.826Z,73.22
2018-12-18T18:15:52.994Z,72.99
2018-12-18T18:18:22.219Z,72.99
2018-12-18T18:20:51.467Z,72.88
2018-12-18T18:23:20.589Z,73.24
2018-12-18T18:25:49.952Z,73.44
2018-12-18T18:28:19.108Z,73.53
2018-12-18T18:30:48.353Z,73.74
2018-12-18T18:33:17.513Z,73.58
2018-12-18T18:35:46.657Z,73.69
2018-12-18T18:38:15.823Z,74.03
2018-12-18T18:40:44.988Z,73.98
2018-12-18T18:43:14.241Z,74.09
2018-12-18T18:45:43.553Z,73.92
2018-12-18T18:48:12.765Z,74.15
2018-12-18T18:50:41.906Z,73.94
2018-12-18T18:53:11.099Z,74.39
2018-12-18T18:55:40.204Z,74.25
2018-12-18T18:58:09.401Z,74.61
2018-12-18T19:00:38.553Z,74.47
2018-12-18T19:03:07.810Z,73.94
2018-12-18T19:05:37.041Z,73.83
2018-12-18T19:08:06.299Z,74.13
2018-12-18T19:10:35.496Z,74.05
2018-12-18T19:13:04.808Z,73.87
2018-12-18T19:15:33.979Z,73.90
2018-12-18T19:18:03.204Z,74.04
2018-12-18T19:20:32.506Z,73.63
2018-12-18T19:23:01.772Z,73.75
2018-12-18T19:25:30.900Z,73.81
2018-12-18T19:28:00.126Z,74.01
2018-12-18T19:30:29.299Z,73.96
2018-12-18T19:32:58.503Z,74.02
2018-12-18T19:35:27.684Z,73.54
2018-12-18T19:38:03.015Z,73.88
2018-12-18T19:40:28.041Z,73.46
2018-12-18T19:42:57.223Z,73.85
2018-12-18T19:45:26.364Z,73.60
2018-12-18T19:47:55.634Z,73.65
2018-12-18T19:50:24.957Z,74.14
2018-12-18T19:52:54.103Z,73.92
2018-12-18T19:55:23.988Z,73.75
2018-12-18T19:57:53.189Z,73.70
2018-12-18T20:00:22.357Z,73.71
2018-12-18T20:02:51.525Z,73.66
2018-12-18T20:05:20.627Z,73.74
2018-12-18T20:07:49.909Z,73.52
2018-12-18T20:10:19.082Z,73.79
2018-12-18T20:12:48.210Z,73.31
2018-12-18T20:15:17.473Z,73.28
2018-12-18T20:17:53.192Z,73.57
2018-12-18T20:20:22.389Z,72.89
2018-12-18T20:22:51.566Z,73.14
2018-12-18T20:25:20.712Z,73.26
2018-12-18T20:27:49.945Z,72.95
2018-12-18T20:30:19.154Z,73.10
2018-12-18T20:32:48.398Z,72.89
2018-12-18T20:35:17.610Z,73.20
2018-12-18T20:37:46.843Z,73.25
2018-12-18T20:40:16.224Z,73.04
2018-12-18T20:42:45.398Z,73.06
2018-12-18T20:45:14.612Z,73.21
2018-12-18T20:47:43.757Z,73.58
2018-12-18T20:50:12.957Z,73.38
2018-12-18T20:52:42.150Z,73.45
2018-12-18T20:55:11.429Z,73.63
2018-12-18T20:57:40.693Z,73.48
2018-12-18T21:00:12.942Z,73.58
2018-12-18T21:02:42.151Z,73.81
2018-12-18T21:05:11.280Z,73.64
2018-12-18T21:07:40.497Z,73.35
2018-12-18T21:10:10.121Z,73.95
2018-12-18T21:12:39.323Z,73.59
2018-12-18T21:15:08.552Z,73.38
2018-12-18T21:17:37.815Z,73.50
2018-12-18T21:20:09.065Z,73.88
2018-12-18T21:22:38.277Z,73.94
2018-12-18T21:25:08.408Z,73.80
2018-12-18T21:27:37.617Z,73.86
2018-12-18T21:30:08.548Z,74.11
2018-12-18T21:32:37.757Z,74.04
2018-12-18T21:35:07.005Z,74.09
2018-12-18T21:37:36.144Z,73.93
2018-12-18T21:40:06.490Z,73.97
2018-12-18T21:42:35.722Z,74.08
2018-12-18T21:45:05.197Z,74.36
2018-12-18T21:47:34.263Z,74.07
2018-12-18T21:50:03.547Z,74.15
2018-12-18T21:52:32.701Z,74.62
2018-12-18T21:55:01.912Z,74.30
2018-12-18T21:57:31.071Z,74.78
2018-12-18T22:00:00.151Z,74.74
2018-12-18T22:02:29.373Z,74.67
2018-12-18T22:04:58.560Z,74.55
2018-12-18T22:07:27.789Z,74.86
2018-12-18T22:09:56.964Z,74.81
2018-12-18T22:12:26.182Z,74.79
2018-12-18T22:14:55.345Z,74.68
2018-12-18T22:17:24.467Z,74.84
2018-12-18T22:19:53.668Z,74.45
2018-12-18T22:22:22.796Z,74.86
2018-12-18T22:24:51.987Z,74.65
2018-12-18T22:27:21.222Z,74.29
2018-12-18T22:29:50.342Z,74.22
2018-12-18T22:32:19.408Z,74.19
2018-12-18T22:34:48.621Z,74.34
2018-12-18T22:37:17.825Z,74.35
2018-12-18T22:39:46.959Z,74.23
2018-12-18T22:42:16.217Z,73.86
2018-12-18T22:44:45.437Z,73.79
2018-12-18T22:47:14.612Z,74.10
2018-12-18T22:49:43.821Z,73.82
2018-12-18T22:52:12.979Z,73.81
2018-12-18T22:54:42.092Z,73.84
2018-12-18T22:57:11.230Z,74.03
2018-12-18T22:59:40.302Z,74.19
2018-12-18T23:02:14.785Z,74.51
2018-12-18T23:04:44.517Z,74.26
2018-12-18T23:07:14.039Z,74.03
2018-12-18T23:09:43.249Z,73.83
2018-12-18T23:12:12.473Z,74.15
2018-12-18T23:14:41.620Z,74.20
2018-12-18T23:17:10.775Z,74.13
2018-12-18T23:19:40.045Z,74.23
2018-12-18T23:22:09.193Z,73.94
2018-12-18T23:24:39.171Z,73.81
2018-12-18T23:27:08.317Z,73.94
2018-12-18T23:29:37.482Z,73.96
2018-12-18T23:32:06.652Z,73.96
2018-12-18T23:34:35.896Z,74.08
2018-12-18T23:37:05.117Z,73.88
2018-12-18T23:39:34.220Z,73.99
2018-12-18T23:42:03.511Z,74.24
2018-12-18T23:44:32.783Z,73.89
2018-12-18T23:47:01.988Z,73.88
2018-12-18T23:49:31.112Z,74.21
2018-12-18T23:52:00.321Z,74.25
2018-12-18T23:54:29.555Z,74.11
2018-12-18T23:56:58.799Z,74.43
2018-12-18T23:59:27.968Z,74.05
